Saint-Lin, Canada
Current Conditions -  °F | °C
As of 11:00 PM on Wednesday 28 Jan 2015 (Local Time) from CYMX Reporting Station
Clear Clear  
Wind Chill: -6°   Ceiling: Unl
Heat Index:   Visibility: 25mi
Dew Point: -6°   Wind: 8mph
Humidity: 56%   Direction: 240°WSW
Pressure: 30.29"   Gusts: NA
Location:  45.85°N, 73.77°W
Report Text: CYMX 290400Z 24007KT 25SM SKC M14/M21 A3029 RMK SLP265
Loading
Personal Weather Stations






























Interactive Weather Map New forecast layout! Learn more

10-Day Weather Forecast

Advertisements
Track Severe Weather on mobile